sensor_id;sensor_type;location;lat;lon;timestamp;P1;durP1;ratioP1;P2;durP2;ratioP2
15905;SDS011;8051;50.820;4.884;2022-07-25T00:00:33;19.30;;;17.87;;
15905;SDS011;8051;50.820;4.884;2022-07-25T00:03:00;21.73;;;20.50;;
15905;SDS011;8051;50.820;4.884;2022-07-25T00:05:27;21.43;;;19.70;;
15905;SDS011;8051;50.820;4.884;2022-07-25T00:07:54;18.20;;;16.97;;
15905;SDS011;8051;50.820;4.884;2022-07-25T00:10:21;18.80;;;17.20;;
15905;SDS011;8051;50.820;4.884;2022-07-25T00:12:48;19.60;;;18.20;;
15905;SDS011;8051;50.820;4.884;2022-07-25T00:15:16;19.23;;;17.57;;
15905;SDS011;8051;50.820;4.884;2022-07-25T00:17:43;18.77;;;17.67;;
15905;SDS011;8051;50.820;4.884;2022-07-25T00:20:10;20.27;;;18.97;;
15905;SDS011;8051;50.820;4.884;2022-07-25T00:22:37;18.93;;;17.50;;
15905;SDS011;8051;50.820;4.884;2022-07-25T00:25:04;17.80;;;16.50;;
15905;SDS011;8051;50.820;4.884;2022-07-25T00:27:32;19.10;;;17.50;;
15905;SDS011;8051;50.820;4.884;2022-07-25T00:29:59;19.50;;;18.23;;
15905;SDS011;8051;50.820;4.884;2022-07-25T00:32:27;19.57;;;17.87;;
15905;SDS011;8051;50.820;4.884;2022-07-25T00:34:54;19.00;;;17.60;;
15905;SDS011;8051;50.820;4.884;2022-07-25T00:37:21;21.37;;;20.17;;
15905;SDS011;8051;50.820;4.884;2022-07-25T00:39:47;19.40;;;17.97;;
15905;SDS011;8051;50.820;4.884;2022-07-25T00:42:14;19.87;;;18.43;;
15905;SDS011;8051;50.820;4.884;2022-07-25T00:44:41;19.23;;;18.07;;
15905;SDS011;8051;50.820;4.884;2022-07-25T00:47:08;19.00;;;17.50;;
15905;SDS011;8051;50.820;4.884;2022-07-25T00:49:36;17.60;;;16.33;;
15905;SDS011;8051;50.820;4.884;2022-07-25T00:52:03;19.63;;;18.23;;
15905;SDS011;8051;50.820;4.884;2022-07-25T00:54:31;17.90;;;16.67;;
15905;SDS011;8051;50.820;4.884;2022-07-25T00:56:58;18.47;;;17.40;;
15905;SDS011;8051;50.820;4.884;2022-07-25T00:59:25;18.67;;;17.27;;
15905;SDS011;8051;50.820;4.884;2022-07-25T01:01:52;18.77;;;17.63;;
15905;SDS011;8051;50.820;4.884;2022-07-25T01:04:19;17.23;;;16.23;;
15905;SDS011;8051;50.820;4.884;2022-07-25T01:06:47;19.27;;;17.97;;
15905;SDS011;8051;50.820;4.884;2022-07-25T01:09:14;17.53;;;16.23;;
15905;SDS011;8051;50.820;4.884;2022-07-25T01:11:41;16.07;;;14.87;;
15905;SDS011;8051;50.820;4.884;2022-07-25T01:14:08;16.80;;;15.70;;
15905;SDS011;8051;50.820;4.884;2022-07-25T01:16:35;17.00;;;15.80;;
15905;SDS011;8051;50.820;4.884;2022-07-25T01:19:02;18.03;;;16.83;;
15905;SDS011;8051;50.820;4.884;2022-07-25T01:21:35;16.97;;;15.87;;
15905;SDS011;8051;50.820;4.884;2022-07-25T01:24:04;17.10;;;16.10;;
15905;SDS011;8051;50.820;4.884;2022-07-25T01:26:31;17.00;;;15.60;;
15905;SDS011;8051;50.820;4.884;2022-07-25T01:28:58;17.50;;;16.20;;
15905;SDS011;8051;50.820;4.884;2022-07-25T01:31:25;19.07;;;17.20;;
15905;SDS011;8051;50.820;4.884;2022-07-25T01:33:52;18.13;;;16.67;;
15905;SDS011;8051;50.820;4.884;2022-07-25T01:36:19;19.93;;;18.00;;
15905;SDS011;8051;50.820;4.884;2022-07-25T01:38:47;18.60;;;17.40;;
15905;SDS011;8051;50.820;4.884;2022-07-25T01:41:14;19.30;;;17.67;;
15905;SDS011;8051;50.820;4.884;2022-07-25T01:43:41;17.87;;;16.50;;
15905;SDS011;8051;50.820;4.884;2022-07-25T01:46:08;23.13;;;16.50;;
15905;SDS011;8051;50.820;4.884;2022-07-25T01:48:34;17.23;;;16.00;;
15905;SDS011;8051;50.820;4.884;2022-07-25T01:51:01;16.90;;;15.77;;
15905;SDS011;8051;50.820;4.884;2022-07-25T01:53:28;16.63;;;15.63;;
15905;SDS011;8051;50.820;4.884;2022-07-25T01:55:57;18.33;;;16.90;;
15905;SDS011;8051;50.820;4.884;2022-07-25T01:58:24;19.10;;;16.97;;
15905;SDS011;8051;50.820;4.884;2022-07-25T02:00:51;17.10;;;16.10;;
15905;SDS011;8051;50.820;4.884;2022-07-25T02:03:18;17.90;;;16.60;;
15905;SDS011;8051;50.820;4.884;2022-07-25T02:05:57;17.07;;;15.87;;
15905;SDS011;8051;50.820;4.884;2022-07-25T02:08:27;16.50;;;15.23;;
15905;SDS011;8051;50.820;4.884;2022-07-25T02:10:54;18.50;;;16.77;;
15905;SDS011;8051;50.820;4.884;2022-07-25T02:13:23;17.23;;;16.23;;
15905;SDS011;8051;50.820;4.884;2022-07-25T02:15:50;18.07;;;16.27;;
15905;SDS011;8051;50.820;4.884;2022-07-25T02:18:18;17.30;;;16.30;;
15905;SDS011;8051;50.820;4.884;2022-07-25T02:20:45;16.90;;;15.90;;
15905;SDS011;8051;50.820;4.884;2022-07-25T02:23:11;17.07;;;15.97;;
15905;SDS011;8051;50.820;4.884;2022-07-25T02:25:38;17.40;;;16.27;;
15905;SDS011;8051;50.820;4.884;2022-07-25T02:28:05;17.97;;;16.83;;
15905;SDS011;8051;50.820;4.884;2022-07-25T02:30:33;17.83;;;16.73;;
15905;SDS011;8051;50.820;4.884;2022-07-25T02:33:00;16.80;;;15.70;;
15905;SDS011;8051;50.820;4.884;2022-07-25T02:35:27;18.20;;;16.90;;
15905;SDS011;8051;50.820;4.884;2022-07-25T02:37:54;18.30;;;17.03;;
15905;SDS011;8051;50.820;4.884;2022-07-25T02:40:21;17.60;;;16.40;;
15905;SDS011;8051;50.820;4.884;2022-07-25T02:42:48;18.67;;;17.30;;
15905;SDS011;8051;50.820;4.884;2022-07-25T02:45:14;20.43;;;18.17;;
15905;SDS011;8051;50.820;4.884;2022-07-25T02:47:43;18.43;;;17.27;;
15905;SDS011;8051;50.820;4.884;2022-07-25T02:50:10;19.47;;;18.20;;
15905;SDS011;8051;50.820;4.884;2022-07-25T02:52:37;20.37;;;18.63;;
15905;SDS011;8051;50.820;4.884;2022-07-25T02:55:04;22.60;;;20.67;;
15905;SDS011;8051;50.820;4.884;2022-07-25T02:57:32;21.27;;;20.07;;
15905;SDS011;8051;50.820;4.884;2022-07-25T02:59:59;22.40;;;20.90;;
15905;SDS011;8051;50.820;4.884;2022-07-25T03:02:25;22.40;;;21.10;;
15905;SDS011;8051;50.820;4.884;2022-07-25T03:04:54;21.70;;;20.40;;
15905;SDS011;8051;50.820;4.884;2022-07-25T03:07:20;22.53;;;21.23;;
15905;SDS011;8051;50.820;4.884;2022-07-25T03:09:47;19.47;;;18.27;;
15905;SDS011;8051;50.820;4.884;2022-07-25T03:12:14;20.33;;;18.83;;
15905;SDS011;8051;50.820;4.884;2022-07-25T03:14:41;21.07;;;19.87;;
15905;SDS011;8051;50.820;4.884;2022-07-25T03:17:08;25.13;;;23.87;;
15905;SDS011;8051;50.820;4.884;2022-07-25T03:19:34;23.77;;;22.40;;
15905;SDS011;8051;50.820;4.884;2022-07-25T03:22:03;23.57;;;22.07;;
15905;SDS011;8051;50.820;4.884;2022-07-25T03:24:30;22.47;;;21.17;;
15905;SDS011;8051;50.820;4.884;2022-07-25T03:26:57;19.63;;;18.33;;
15905;SDS011;8051;50.820;4.884;2022-07-25T03:29:23;22.23;;;20.93;;
15905;SDS011;8051;50.820;4.884;2022-07-25T03:31:50;21.10;;;19.90;;
15905;SDS011;8051;50.820;4.884;2022-07-25T03:34:17;23.47;;;21.83;;
15905;SDS011;8051;50.820;4.884;2022-07-25T03:36:44;24.97;;;23.47;;
15905;SDS011;8051;50.820;4.884;2022-07-25T03:39:12;21.47;;;20.20;;
15905;SDS011;8051;50.820;4.884;2022-07-25T03:41:39;26.17;;;24.67;;
15905;SDS011;8051;50.820;4.884;2022-07-25T03:44:06;25.43;;;23.93;;
15905;SDS011;8051;50.820;4.884;2022-07-25T03:46:33;22.50;;;21.10;;
15905;SDS011;8051;50.820;4.884;2022-07-25T03:49:00;23.97;;;22.17;;
15905;SDS011;8051;50.820;4.884;2022-07-25T03:51:27;17.63;;;16.63;;
15905;SDS011;8051;50.820;4.884;2022-07-25T03:53:54;19.03;;;17.83;;
15905;SDS011;8051;50.820;4.884;2022-07-25T03:56:28;18.30;;;17.00;;
15905;SDS011;8051;50.820;4.884;2022-07-25T03:58:55;19.93;;;18.43;;
15905;SDS011;8051;50.820;4.884;2022-07-25T04:01:22;16.77;;;15.77;;
15905;SDS011;8051;50.820;4.884;2022-07-25T04:03:49;20.13;;;18.93;;
15905;SDS011;8051;50.820;4.884;2022-07-25T04:06:16;16.70;;;15.60;;
15905;SDS011;8051;50.820;4.884;2022-07-25T04:08:43;20.43;;;19.33;;
15905;SDS011;8051;50.820;4.884;2022-07-25T04:11:10;22.07;;;20.33;;
15905;SDS011;8051;50.820;4.884;2022-07-25T04:13:38;22.87;;;21.27;;
15905;SDS011;8051;50.820;4.884;2022-07-25T04:16:05;19.87;;;18.67;;
15905;SDS011;8051;50.820;4.884;2022-07-25T04:18:32;19.53;;;18.23;;
15905;SDS011;8051;50.820;4.884;2022-07-25T04:20:59;18.50;;;17.43;;
15905;SDS011;8051;50.820;4.884;2022-07-25T04:23:26;16.63;;;15.60;;
15905;SDS011;8051;50.820;4.884;2022-07-25T04:25:53;17.03;;;16.03;;
15905;SDS011;8051;50.820;4.884;2022-07-25T04:28:20;16.30;;;15.27;;
15905;SDS011;8051;50.820;4.884;2022-07-25T04:30:48;17.37;;;16.07;;
15905;SDS011;8051;50.820;4.884;2022-07-25T04:33:16;15.47;;;14.37;;
15905;SDS011;8051;50.820;4.884;2022-07-25T04:35:43;16.03;;;14.97;;
15905;SDS011;8051;50.820;4.884;2022-07-25T04:38:10;13.60;;;12.73;;
15905;SDS011;8051;50.820;4.884;2022-07-25T04:40:37;13.07;;;12.27;;
15905;SDS011;8051;50.820;4.884;2022-07-25T04:43:04;14.30;;;13.40;;
15905;SDS011;8051;50.820;4.884;2022-07-25T04:45:32;12.10;;;11.40;;
15905;SDS011;8051;50.820;4.884;2022-07-25T04:48:01;14.33;;;13.20;;
15905;SDS011;8051;50.820;4.884;2022-07-25T04:50:29;13.00;;;12.10;;
15905;SDS011;8051;50.820;4.884;2022-07-25T04:52:56;12.93;;;12.13;;
15905;SDS011;8051;50.820;4.884;2022-07-25T04:55:22;13.40;;;12.50;;
15905;SDS011;8051;50.820;4.884;2022-07-25T04:57:49;13.83;;;13.03;;
15905;SDS011;8051;50.820;4.884;2022-07-25T05:00:16;14.10;;;13.10;;
15905;SDS011;8051;50.820;4.884;2022-07-25T05:02:43;14.17;;;13.23;;
15905;SDS011;8051;50.820;4.884;2022-07-25T05:05:12;15.60;;;14.57;;
15905;SDS011;8051;50.820;4.884;2022-07-25T05:07:39;16.77;;;15.47;;
15905;SDS011;8051;50.820;4.884;2022-07-25T05:10:06;16.50;;;14.93;;
15905;SDS011;8051;50.820;4.884;2022-07-25T05:12:33;15.30;;;14.30;;
15905;SDS011;8051;50.820;4.884;2022-07-25T05:15:00;15.67;;;14.77;;
15905;SDS011;8051;50.820;4.884;2022-07-25T05:17:27;16.57;;;15.47;;
15905;SDS011;8051;50.820;4.884;2022-07-25T05:19:54;16.37;;;15.30;;
15905;SDS011;8051;50.820;4.884;2022-07-25T05:22:23;15.30;;;14.20;;
15905;SDS011;8051;50.820;4.884;2022-07-25T05:24:50;17.30;;;16.10;;
15905;SDS011;8051;50.820;4.884;2022-07-25T05:27:17;15.63;;;14.67;;
15905;SDS011;8051;50.820;4.884;2022-07-25T05:29:44;16.20;;;15.10;;
15905;SDS011;8051;50.820;4.884;2022-07-25T05:32:11;16.33;;;15.33;;
15905;SDS011;8051;50.820;4.884;2022-07-25T05:34:38;16.27;;;15.27;;
15905;SDS011;8051;50.820;4.884;2022-07-25T05:37:04;16.13;;;14.83;;
15905;SDS011;8051;50.820;4.884;2022-07-25T05:39:33;15.20;;;14.10;;
15905;SDS011;8051;50.820;4.884;2022-07-25T05:42:01;15.27;;;14.33;;
15905;SDS011;8051;50.820;4.884;2022-07-25T05:44:29;18.23;;;16.60;;
15905;SDS011;8051;50.820;4.884;2022-07-25T05:46:56;16.13;;;15.03;;
15905;SDS011;8051;50.820;4.884;2022-07-25T05:49:23;15.20;;;14.10;;
15905;SDS011;8051;50.820;4.884;2022-07-25T05:51:50;15.90;;;14.90;;
15905;SDS011;8051;50.820;4.884;2022-07-25T05:54:17;16.23;;;14.77;;
15905;SDS011;8051;50.820;4.884;2022-07-25T05:56:45;12.90;;;12.10;;
15905;SDS011;8051;50.820;4.884;2022-07-25T05:59:12;12.20;;;11.40;;
15905;SDS011;8051;50.820;4.884;2022-07-25T06:01:39;13.33;;;12.33;;
15905;SDS011;8051;50.820;4.884;2022-07-25T06:04:06;11.57;;;10.87;;
15905;SDS011;8051;50.820;4.884;2022-07-25T06:06:32;11.47;;;10.77;;
15905;SDS011;8051;50.820;4.884;2022-07-25T06:08:59;10.87;;;10.13;;
15905;SDS011;8051;50.820;4.884;2022-07-25T06:11:26;10.47;;;9.87;;
15905;SDS011;8051;50.820;4.884;2022-07-25T06:13:56;9.90;;;9.20;;
15905;SDS011;8051;50.820;4.884;2022-07-25T06:16:23;10.73;;;9.93;;
15905;SDS011;8051;50.820;4.884;2022-07-25T06:18:49;10.83;;;10.23;;
15905;SDS011;8051;50.820;4.884;2022-07-25T06:21:16;9.97;;;9.37;;
15905;SDS011;8051;50.820;4.884;2022-07-25T06:23:43;10.63;;;10.03;;
15905;SDS011;8051;50.820;4.884;2022-07-25T06:26:10;10.10;;;9.27;;
15905;SDS011;8051;50.820;4.884;2022-07-25T06:28:37;9.40;;;8.80;;
15905;SDS011;8051;50.820;4.884;2022-07-25T06:31:05;11.23;;;10.33;;
15905;SDS011;8051;50.820;4.884;2022-07-25T06:33:32;10.83;;;9.90;;
15905;SDS011;8051;50.820;4.884;2022-07-25T06:35:59;12.00;;;11.20;;
15905;SDS011;8051;50.820;4.884;2022-07-25T06:38:26;12.23;;;11.33;;
15905;SDS011;8051;50.820;4.884;2022-07-25T06:40:53;12.23;;;11.37;;
15905;SDS011;8051;50.820;4.884;2022-07-25T06:43:20;12.10;;;11.40;;
15905;SDS011;8051;50.820;4.884;2022-07-25T06:45:47;12.00;;;11.10;;
15905;SDS011;8051;50.820;4.884;2022-07-25T06:48:15;13.30;;;12.47;;
15905;SDS011;8051;50.820;4.884;2022-07-25T06:50:43;11.90;;;11.20;;
15905;SDS011;8051;50.820;4.884;2022-07-25T06:53:10;13.10;;;12.10;;
15905;SDS011;8051;50.820;4.884;2022-07-25T06:55:37;12.63;;;11.40;;
15905;SDS011;8051;50.820;4.884;2022-07-25T06:58:04;12.20;;;11.50;;
15905;SDS011;8051;50.820;4.884;2022-07-25T07:00:31;12.53;;;11.50;;
15905;SDS011;8051;50.820;4.884;2022-07-25T07:02:58;12.20;;;11.40;;
15905;SDS011;8051;50.820;4.884;2022-07-25T07:05:29;12.63;;;11.73;;
15905;SDS011;8051;50.820;4.884;2022-07-25T07:07:57;14.57;;;12.17;;
15905;SDS011;8051;50.820;4.884;2022-07-25T07:10:24;11.47;;;10.70;;
15905;SDS011;8051;50.820;4.884;2022-07-25T07:13:00;10.70;;;9.93;;
15905;SDS011;8051;50.820;4.884;2022-07-25T07:15:28;11.40;;;10.70;;
15905;SDS011;8051;50.820;4.884;2022-07-25T07:17:55;12.40;;;11.37;;
15905;SDS011;8051;50.820;4.884;2022-07-25T07:20:22;12.93;;;12.03;;
15905;SDS011;8051;50.820;4.884;2022-07-25T07:22:50;10.37;;;9.57;;
15905;SDS011;8051;50.820;4.884;2022-07-25T07:25:17;12.40;;;11.53;;
15905;SDS011;8051;50.820;4.884;2022-07-25T07:27:48;13.30;;;12.50;;
15905;SDS011;8051;50.820;4.884;2022-07-25T07:30:16;15.87;;;14.43;;
15905;SDS011;8051;50.820;4.884;2022-07-25T07:32:43;16.07;;;14.40;;
15905;SDS011;8051;50.820;4.884;2022-07-25T07:35:10;15.60;;;14.70;;
15905;SDS011;8051;50.820;4.884;2022-07-25T07:37:40;17.87;;;16.83;;
15905;SDS011;8051;50.820;4.884;2022-07-25T07:40:10;13.30;;;12.53;;
15905;SDS011;8051;50.820;4.884;2022-07-25T07:42:38;15.20;;;14.27;;
15905;SDS011;8051;50.820;4.884;2022-07-25T07:45:12;15.13;;;14.03;;
15905;SDS011;8051;50.820;4.884;2022-07-25T07:47:40;12.20;;;11.50;;
15905;SDS011;8051;50.820;4.884;2022-07-25T07:50:08;13.33;;;12.13;;
15905;SDS011;8051;50.820;4.884;2022-07-25T07:52:35;11.20;;;10.13;;
15905;SDS011;8051;50.820;4.884;2022-07-25T07:55:02;12.10;;;11.10;;
15905;SDS011;8051;50.820;4.884;2022-07-25T07:57:49;12.87;;;12.07;;
15905;SDS011;8051;50.820;4.884;2022-07-25T08:00:16;14.67;;;13.67;;
15905;SDS011;8051;50.820;4.884;2022-07-25T08:02:44;12.73;;;11.47;;
15905;SDS011;8051;50.820;4.884;2022-07-25T08:05:12;11.33;;;10.33;;
15905;SDS011;8051;50.820;4.884;2022-07-25T08:07:39;11.90;;;11.27;;
15905;SDS011;8051;50.820;4.884;2022-07-25T08:10:06;12.53;;;11.93;;
15905;SDS011;8051;50.820;4.884;2022-07-25T08:12:38;13.43;;;12.60;;
15905;SDS011;8051;50.820;4.884;2022-07-25T08:15:07;13.17;;;12.57;;
15905;SDS011;8051;50.820;4.884;2022-07-25T08:17:35;12.13;;;11.57;;
15905;SDS011;8051;50.820;4.884;2022-07-25T08:20:02;11.77;;;11.27;;
15905;SDS011;8051;50.820;4.884;2022-07-25T08:22:35;11.30;;;10.70;;
15905;SDS011;8051;50.820;4.884;2022-07-25T08:25:04;12.87;;;11.63;;
15905;SDS011;8051;50.820;4.884;2022-07-25T08:27:32;13.47;;;12.33;;
15905;SDS011;8051;50.820;4.884;2022-07-25T08:29:59;13.17;;;12.47;;
15905;SDS011;8051;50.820;4.884;2022-07-25T08:32:27;12.20;;;11.60;;
15905;SDS011;8051;50.820;4.884;2022-07-25T08:34:54;13.07;;;12.20;;
15905;SDS011;8051;50.820;4.884;2022-07-25T08:37:21;12.17;;;11.53;;
15905;SDS011;8051;50.820;4.884;2022-07-25T08:39:49;11.30;;;10.63;;
15905;SDS011;8051;50.820;4.884;2022-07-25T08:42:16;12.93;;;11.97;;
15905;SDS011;8051;50.820;4.884;2022-07-25T08:44:47;12.67;;;12.07;;
15905;SDS011;8051;50.820;4.884;2022-07-25T08:47:15;12.70;;;12.10;;
15905;SDS011;8051;50.820;4.884;2022-07-25T08:49:44;12.10;;;11.60;;
15905;SDS011;8051;50.820;4.884;2022-07-25T08:52:12;13.17;;;12.13;;
15905;SDS011;8051;50.820;4.884;2022-07-25T08:54:40;11.93;;;11.23;;
15905;SDS011;8051;50.820;4.884;2022-07-25T08:57:07;12.80;;;12.00;;
15905;SDS011;8051;50.820;4.884;2022-07-25T08:59:34;13.80;;;12.80;;
15905;SDS011;8051;50.820;4.884;2022-07-25T09:02:01;11.37;;;10.77;;
15905;SDS011;8051;50.820;4.884;2022-07-25T09:04:31;12.83;;;12.17;;
15905;SDS011;8051;50.820;4.884;2022-07-25T09:07:01;13.67;;;12.87;;
15905;SDS011;8051;50.820;4.884;2022-07-25T09:09:29;13.37;;;12.57;;
15905;SDS011;8051;50.820;4.884;2022-07-25T09:11:57;12.83;;;12.23;;
15905;SDS011;8051;50.820;4.884;2022-07-25T09:14:25;14.57;;;13.30;;
15905;SDS011;8051;50.820;4.884;2022-07-25T09:16:53;13.37;;;12.47;;
15905;SDS011;8051;50.820;4.884;2022-07-25T09:19:21;12.27;;;11.67;;
15905;SDS011;8051;50.820;4.884;2022-07-25T09:21:58;12.70;;;11.80;;
15905;SDS011;8051;50.820;4.884;2022-07-25T09:24:28;13.07;;;12.33;;
15905;SDS011;8051;50.820;4.884;2022-07-25T09:26:57;11.93;;;11.23;;
15905;SDS011;8051;50.820;4.884;2022-07-25T09:29:26;14.13;;;13.30;;
15905;SDS011;8051;50.820;4.884;2022-07-25T09:31:56;12.60;;;11.93;;
15905;SDS011;8051;50.820;4.884;2022-07-25T09:34:32;12.10;;;11.50;;
15905;SDS011;8051;50.820;4.884;2022-07-25T09:37:00;13.93;;;12.67;;
15905;SDS011;8051;50.820;4.884;2022-07-25T09:39:33;13.40;;;12.70;;
15905;SDS011;8051;50.820;4.884;2022-07-25T09:42:02;12.07;;;11.20;;
15905;SDS011;8051;50.820;4.884;2022-07-25T09:44:43;12.20;;;10.93;;
15905;SDS011;8051;50.820;4.884;2022-07-25T09:47:22;13.30;;;12.70;;
15905;SDS011;8051;50.820;4.884;2022-07-25T09:49:49;11.80;;;11.20;;
15905;SDS011;8051;50.820;4.884;2022-07-25T09:52:17;14.17;;;13.33;;
15905;SDS011;8051;50.820;4.884;2022-07-25T09:54:45;17.47;;;12.67;;
15905;SDS011;8051;50.820;4.884;2022-07-25T09:57:12;12.20;;;11.40;;
15905;SDS011;8051;50.820;4.884;2022-07-25T09:59:39;13.57;;;12.63;;
15905;SDS011;8051;50.820;4.884;2022-07-25T10:02:07;12.77;;;11.87;;
15905;SDS011;8051;50.820;4.884;2022-07-25T10:04:40;12.87;;;12.07;;
15905;SDS011;8051;50.820;4.884;2022-07-25T10:07:11;12.13;;;11.53;;
15905;SDS011;8051;50.820;4.884;2022-07-25T10:09:41;13.33;;;12.60;;
15905;SDS011;8051;50.820;4.884;2022-07-25T10:12:12;13.30;;;12.70;;
15905;SDS011;8051;50.820;4.884;2022-07-25T10:14:40;14.03;;;13.40;;
15905;SDS011;8051;50.820;4.884;2022-07-25T10:17:07;11.90;;;11.20;;
15905;SDS011;8051;50.820;4.884;2022-07-25T10:19:35;14.10;;;13.23;;
15905;SDS011;8051;50.820;4.884;2022-07-25T10:22:05;14.13;;;13.23;;
15905;SDS011;8051;50.820;4.884;2022-07-25T10:24:33;13.87;;;13.17;;
15905;SDS011;8051;50.820;4.884;2022-07-25T10:27:06;14.33;;;13.63;;
15905;SDS011;8051;50.820;4.884;2022-07-25T10:29:35;13.50;;;12.90;;
15905;SDS011;8051;50.820;4.884;2022-07-25T10:32:06;14.23;;;13.53;;
15905;SDS011;8051;50.820;4.884;2022-07-25T10:34:34;14.57;;;13.83;;
15905;SDS011;8051;50.820;4.884;2022-07-25T10:37:08;15.43;;;14.73;;
15905;SDS011;8051;50.820;4.884;2022-07-25T10:39:37;13.70;;;13.03;;
15905;SDS011;8051;50.820;4.884;2022-07-25T10:42:05;14.77;;;13.87;;
15905;SDS011;8051;50.820;4.884;2022-07-25T10:44:40;15.17;;;14.30;;
15905;SDS011;8051;50.820;4.884;2022-07-25T10:47:09;12.77;;;12.17;;
15905;SDS011;8051;50.820;4.884;2022-07-25T10:49:38;14.20;;;13.40;;
15905;SDS011;8051;50.820;4.884;2022-07-25T10:52:06;14.30;;;13.53;;
15905;SDS011;8051;50.820;4.884;2022-07-25T10:54:39;17.33;;;16.43;;
15905;SDS011;8051;50.820;4.884;2022-07-25T10:57:12;14.83;;;13.93;;
15905;SDS011;8051;50.820;4.884;2022-07-25T10:59:41;14.97;;;14.00;;
15905;SDS011;8051;50.820;4.884;2022-07-25T11:02:08;14.20;;;13.47;;
15905;SDS011;8051;50.820;4.884;2022-07-25T11:04:40;14.33;;;13.60;;
15905;SDS011;8051;50.820;4.884;2022-07-25T11:07:08;17.07;;;16.07;;
15905;SDS011;8051;50.820;4.884;2022-07-25T11:09:36;14.67;;;13.67;;
15905;SDS011;8051;50.820;4.884;2022-07-25T11:12:03;13.27;;;12.57;;
15905;SDS011;8051;50.820;4.884;2022-07-25T11:14:32;13.80;;;13.03;;
15905;SDS011;8051;50.820;4.884;2022-07-25T11:17:12;14.50;;;13.70;;
15905;SDS011;8051;50.820;4.884;2022-07-25T11:19:40;14.13;;;13.43;;
15905;SDS011;8051;50.820;4.884;2022-07-25T11:22:08;13.87;;;13.17;;
15905;SDS011;8051;50.820;4.884;2022-07-25T11:24:37;30.67;;;29.17;;
15905;SDS011;8051;50.820;4.884;2022-07-25T11:27:05;18.37;;;17.30;;
15905;SDS011;8051;50.820;4.884;2022-07-25T11:29:33;32.87;;;31.30;;
15905;SDS011;8051;50.820;4.884;2022-07-25T11:32:02;13.63;;;12.87;;
15905;SDS011;8051;50.820;4.884;2022-07-25T11:34:32;13.30;;;12.60;;
15905;SDS011;8051;50.820;4.884;2022-07-25T11:37:02;23.63;;;13.10;;
15905;SDS011;8051;50.820;4.884;2022-07-25T11:39:31;12.40;;;11.57;;
15905;SDS011;8051;50.820;4.884;2022-07-25T11:42:03;14.03;;;13.13;;
15905;SDS011;8051;50.820;4.884;2022-07-25T11:44:32;12.17;;;11.40;;
15905;SDS011;8051;50.820;4.884;2022-07-25T11:47:00;13.60;;;12.70;;
15905;SDS011;8051;50.820;4.884;2022-07-25T11:49:28;12.43;;;11.80;;
15905;SDS011;8051;50.820;4.884;2022-07-25T11:51:57;13.10;;;12.23;;
15905;SDS011;8051;50.820;4.884;2022-07-25T11:54:24;11.10;;;10.53;;
15905;SDS011;8051;50.820;4.884;2022-07-25T11:56:51;12.60;;;11.73;;
15905;SDS011;8051;50.820;4.884;2022-07-25T11:59:18;13.17;;;11.10;;
15905;SDS011;8051;50.820;4.884;2022-07-25T12:01:45;12.43;;;11.63;;
15905;SDS011;8051;50.820;4.884;2022-07-25T12:04:13;13.03;;;11.83;;
15905;SDS011;8051;50.820;4.884;2022-07-25T12:06:42;13.53;;;12.33;;
15905;SDS011;8051;50.820;4.884;2022-07-25T12:09:15;17.37;;;16.13;;
15905;SDS011;8051;50.820;4.884;2022-07-25T12:11:43;14.73;;;13.50;;
15905;SDS011;8051;50.820;4.884;2022-07-25T12:14:11;14.10;;;12.87;;
15905;SDS011;8051;50.820;4.884;2022-07-25T12:16:38;15.07;;;14.27;;
15905;SDS011;8051;50.820;4.884;2022-07-25T12:19:07;14.33;;;13.43;;
15905;SDS011;8051;50.820;4.884;2022-07-25T12:21:42;16.43;;;15.20;;
15905;SDS011;8051;50.820;4.884;2022-07-25T12:24:09;16.87;;;15.63;;
15905;SDS011;8051;50.820;4.884;2022-07-25T12:26:37;16.67;;;15.77;;
15905;SDS011;8051;50.820;4.884;2022-07-25T12:29:04;15.70;;;14.90;;
15905;SDS011;8051;50.820;4.884;2022-07-25T12:31:31;16.57;;;15.57;;
15905;SDS011;8051;50.820;4.884;2022-07-25T12:33:58;14.97;;;14.10;;
15905;SDS011;8051;50.820;4.884;2022-07-25T12:36:25;15.73;;;14.43;;
15905;SDS011;8051;50.820;4.884;2022-07-25T12:38:52;14.30;;;13.47;;
15905;SDS011;8051;50.820;4.884;2022-07-25T12:41:19;12.30;;;11.70;;
15905;SDS011;8051;50.820;4.884;2022-07-25T12:43:48;12.80;;;11.67;;
15905;SDS011;8051;50.820;4.884;2022-07-25T12:46:15;12.47;;;11.57;;
15905;SDS011;8051;50.820;4.884;2022-07-25T12:48:42;13.43;;;12.53;;
15905;SDS011;8051;50.820;4.884;2022-07-25T12:51:09;14.43;;;13.50;;
15905;SDS011;8051;50.820;4.884;2022-07-25T12:53:36;13.40;;;12.43;;
15905;SDS011;8051;50.820;4.884;2022-07-25T12:56:03;15.10;;;13.93;;
15905;SDS011;8051;50.820;4.884;2022-07-25T12:58:30;15.00;;;14.10;;
15905;SDS011;8051;50.820;4.884;2022-07-25T13:00:58;14.83;;;13.60;;
15905;SDS011;8051;50.820;4.884;2022-07-25T13:03:25;12.77;;;11.97;;
15905;SDS011;8051;50.820;4.884;2022-07-25T13:05:53;14.63;;;13.83;;
15905;SDS011;8051;50.820;4.884;2022-07-25T13:08:19;11.67;;;11.07;;
15905;SDS011;8051;50.820;4.884;2022-07-25T13:10:46;12.57;;;11.87;;
15905;SDS011;8051;50.820;4.884;2022-07-25T13:13:13;13.77;;;12.77;;
15905;SDS011;8051;50.820;4.884;2022-07-25T13:15:40;17.60;;;15.93;;
15905;SDS011;8051;50.820;4.884;2022-07-25T13:18:08;13.17;;;12.27;;
15905;SDS011;8051;50.820;4.884;2022-07-25T13:20:36;11.53;;;10.77;;
15905;SDS011;8051;50.820;4.884;2022-07-25T13:23:03;15.17;;;14.20;;
15905;SDS011;8051;50.820;4.884;2022-07-25T13:25:31;13.07;;;12.17;;
15905;SDS011;8051;50.820;4.884;2022-07-25T13:27:58;11.60;;;11.00;;
15905;SDS011;8051;50.820;4.884;2022-07-25T13:30:25;12.67;;;11.87;;
15905;SDS011;8051;50.820;4.884;2022-07-25T13:32:52;12.37;;;11.57;;
15905;SDS011;8051;50.820;4.884;2022-07-25T13:35:20;12.47;;;11.67;;
15905;SDS011;8051;50.820;4.884;2022-07-25T13:37:47;11.90;;;11.10;;
15905;SDS011;8051;50.820;4.884;2022-07-25T13:40:14;12.50;;;11.47;;
15905;SDS011;8051;50.820;4.884;2022-07-25T13:42:41;15.20;;;13.67;;
15905;SDS011;8051;50.820;4.884;2022-07-25T13:45:08;13.67;;;12.80;;
15905;SDS011;8051;50.820;4.884;2022-07-25T13:47:35;13.73;;;12.83;;
15905;SDS011;8051;50.820;4.884;2022-07-25T13:50:02;13.10;;;12.23;;
15905;SDS011;8051;50.820;4.884;2022-07-25T13:52:31;13.63;;;12.77;;
15905;SDS011;8051;50.820;4.884;2022-07-25T13:54:58;14.23;;;13.33;;
15905;SDS011;8051;50.820;4.884;2022-07-25T13:57:25;13.97;;;13.07;;
15905;SDS011;8051;50.820;4.884;2022-07-25T13:59:52;13.13;;;12.27;;
15905;SDS011;8051;50.820;4.884;2022-07-25T14:02:19;17.27;;;16.27;;
15905;SDS011;8051;50.820;4.884;2022-07-25T14:04:46;12.77;;;12.07;;
15905;SDS011;8051;50.820;4.884;2022-07-25T14:07:12;12.40;;;11.60;;
15905;SDS011;8051;50.820;4.884;2022-07-25T14:09:41;13.07;;;11.97;;
15905;SDS011;8051;50.820;4.884;2022-07-25T14:12:08;13.47;;;12.63;;
15905;SDS011;8051;50.820;4.884;2022-07-25T14:14:35;13.03;;;12.10;;
15905;SDS011;8051;50.820;4.884;2022-07-25T14:17:01;13.63;;;12.67;;
15905;SDS011;8051;50.820;4.884;2022-07-25T14:19:28;18.03;;;16.53;;
15905;SDS011;8051;50.820;4.884;2022-07-25T14:21:55;12.70;;;11.90;;
15905;SDS011;8051;50.820;4.884;2022-07-25T14:24:22;13.53;;;12.50;;
15905;SDS011;8051;50.820;4.884;2022-07-25T14:26:50;12.97;;;12.23;;
15905;SDS011;8051;50.820;4.884;2022-07-25T14:29:18;14.30;;;12.73;;
15905;SDS011;8051;50.820;4.884;2022-07-25T14:31:44;13.93;;;12.60;;
15905;SDS011;8051;50.820;4.884;2022-07-25T14:34:11;12.70;;;11.90;;
15905;SDS011;8051;50.820;4.884;2022-07-25T14:36:39;14.63;;;13.57;;
15905;SDS011;8051;50.820;4.884;2022-07-25T14:39:08;17.30;;;16.03;;